Time;durP1;ratioP1;P1;durP2;ratioP2;P2;SDS_P1;SDS_P2;PMS_P1;PMS_P2;Temp;Humidity;BMP_temperature;BMP_pressure;BME280_temperature;BME280_humidity;BME280_pressure;Samples;Min_cycle;Max_cycle;Signal;HPM_P1;HPM_P2
2021/05/16 00:00:10;;;;;;;7.68;4.15;;;16.20;78.00;;;;;;5071084;28;20044;-54
2021/05/16 00:02:35;;;;;;;4.82;3.90;;;16.20;77.90;;;;;;5069663;28;20043;-48
2021/05/16 00:05:02;;;;;;;6.93;4.10;;;16.20;77.90;;;;;;5070654;28;20025;-54
2021/05/16 00:07:28;;;;;;;5.68;3.50;;;16.20;78.00;;;;;;5050866;28;20024;-55
2021/05/16 00:09:53;;;;;;;10.13;4.10;;;16.20;77.90;;;;;;5070787;28;20473;-48
2021/05/16 00:12:19;;;;;;;6.32;4.07;;;16.20;77.90;;;;;;5069437;28;20086;-48
2021/05/16 00:14:45;;;;;;;6.40;4.50;;;16.20;77.90;;;;;;5069138;28;20024;-50
2021/05/16 00:17:11;;;;;;;4.68;3.88;;;16.20;77.80;;;;;;5070008;28;20033;-50
2021/05/16 00:19:37;;;;;;;7.15;3.80;;;16.30;77.60;;;;;;5051638;28;20416;-51
2021/05/16 00:22:03;;;;;;;7.10;4.05;;;16.40;77.20;;;;;;5067421;28;20025;-50
2021/05/16 00:24:30;;;;;;;7.00;4.32;;;16.40;76.80;;;;;;5050241;28;20140;-50
2021/05/16 00:29:40;;;;;;;6.35;3.60;;;16.50;76.50;;;;;;5069443;28;20063;-49
2021/05/16 00:32:06;;;;;;;5.75;4.07;;;16.50;76.20;;;;;;5069639;28;20021;-51
2021/05/16 00:34:32;;;;;;;8.80;3.80;;;16.40;76.40;;;;;;5052020;28;20040;-51
2021/05/16 00:36:59;;;;;;;5.10;3.80;;;16.40;76.80;;;;;;5067814;28;20044;-48
2021/05/16 00:39:25;;;;;;;6.50;4.05;;;16.40;76.70;;;;;;5058962;28;20089;-54
2021/05/16 00:41:52;;;;;;;6.00;3.80;;;16.50;76.60;;;;;;5069491;28;20036;-49
2021/05/16 00:44:19;;;;;;;4.90;3.95;;;16.60;76.30;;;;;;5051559;28;20021;-45
2021/05/16 00:46:45;;;;;;;5.65;3.80;;;16.60;76.10;;;;;;5048630;28;20260;-48
2021/05/16 00:49:11;;;;;;;5.88;3.60;;;16.70;76.00;;;;;;5072067;28;20047;-49
2021/05/16 00:51:37;;;;;;;7.10;3.90;;;16.60;75.60;;;;;;5088301;28;20036;-47
2021/05/16 00:54:06;;;;;;;4.30;3.03;;;16.50;75.40;;;;;;5089106;28;20059;-45
2021/05/16 00:56:31;;;;;;;5.70;2.67;;;16.40;74.30;;;;;;5071148;28;20024;-45
2021/05/16 00:58:59;;;;;;;5.82;2.90;;;16.40;74.40;;;;;;5090707;28;20464;-57
2021/05/16 01:01:26;;;;;;;2.88;2.10;;;16.30;73.70;;;;;;5088599;28;20028;-51
2021/05/16 01:03:53;;;;;;;2.58;1.83;;;16.30;73.60;;;;;;5082223;28;20730;-46
2021/05/16 01:06:19;;;;;;;3.90;1.67;;;16.20;73.00;;;;;;5089733;28;20027;-48
2021/05/16 01:08:46;;;;;;;2.67;1.40;;;16.10;72.90;;;;;;5084459;28;20195;-48
2021/05/16 01:11:13;;;;;;;3.95;1.63;;;16.00;72.70;;;;;;5088824;28;20496;-52
2021/05/16 01:13:39;;;;;;;2.55;1.30;;;16.00;72.40;;;;;;5089961;28;20059;-50
2021/05/16 01:16:04;;;;;;;3.60;1.48;;;16.00;72.10;;;;;;5088355;28;20024;-44
2021/05/16 01:18:30;;;;;;;7.65;1.58;;;16.00;71.90;;;;;;5087694;28;20459;-48
2021/05/16 01:20:56;;;;;;;2.00;1.15;;;16.00;71.60;;;;;;5084119;28;20031;-53
2021/05/16 01:23:31;;;;;;;1.90;1.08;;;16.00;71.80;;;;;;5088657;28;20032;-46
2021/05/16 01:25:57;;;;;;;2.25;1.13;;;15.90;71.70;;;;;;5088252;28;20024;-49
2021/05/16 01:28:23;;;;;;;1.50;1.00;;;15.90;71.60;;;;;;5087747;28;20046;-47
2021/05/16 01:30:50;;;;;;;3.25;1.00;;;15.90;71.80;;;;;;5087007;28;20032;-47
2021/05/16 01:33:18;;;;;;;4.60;1.00;;;15.80;72.00;;;;;;5088547;28;20437;-47
2021/05/16 01:35:44;;;;;;;2.50;1.02;;;15.70;72.00;;;;;;5088538;28;20050;-50
2021/05/16 01:38:11;;;;;;;1.13;0.90;;;15.70;71.90;;;;;;5086277;28;20028;-48
2021/05/16 01:40:40;;;;;;;1.27;0.80;;;15.70;72.50;;;;;;5087586;28;20028;-48
2021/05/16 01:43:10;;;;;;;6.18;1.17;;;15.50;72.10;;;;;;5083471;28;20122;-46
2021/05/16 01:45:36;;;;;;;1.67;0.80;;;15.60;71.90;;;;;;5087700;28;20036;-44
2021/05/16 01:48:03;;;;;;;1.13;0.90;;;15.60;71.70;;;;;;5086616;28;20135;-47
2021/05/16 01:50:34;;;;;;;2.08;0.88;;;15.60;71.60;;;;;;5068447;28;20111;-46
2021/05/16 01:53:02;;;;;;;1.30;1.00;;;15.60;71.40;;;;;;5067191;28;20446;-48
2021/05/16 01:55:27;;;;;;;1.73;0.90;;;15.50;71.40;;;;;;5065074;28;20047;-49
2021/05/16 01:57:53;;;;;;;1.83;0.80;;;15.40;71.70;;;;;;5067975;28;20036;-47
2021/05/16 02:00:32;;;;;;;1.88;0.90;;;15.40;71.60;;;;;;5070861;28;20024;-50
2021/05/16 02:02:59;;;;;;;1.77;0.80;;;15.50;71.30;;;;;;5052992;28;20461;-48
2021/05/16 02:05:25;;;;;;;2.53;0.80;;;15.50;70.90;;;;;;5071179;28;20020;-46
2021/05/16 02:07:52;;;;;;;1.73;0.93;;;15.60;70.60;;;;;;5071010;28;20497;-48
2021/05/16 02:10:21;;;;;;;1.10;0.70;;;15.60;70.30;;;;;;5053006;28;20025;-49
2021/05/16 02:12:47;;;;;;;3.75;0.90;;;15.60;70.00;;;;;;5070757;28;20282;-48
2021/05/16 02:15:13;;;;;;;1.67;0.90;;;15.60;69.70;;;;;;5070767;28;20032;-48
2021/05/16 02:17:41;;;;;;;1.33;0.85;;;15.70;69.80;;;;;;5070175;28;20512;-47
2021/05/16 02:20:14;;;;;;;1.15;0.63;;;15.70;69.60;;;;;;5070829;28;20063;-50
2021/05/16 02:22:40;;;;;;;1.77;0.70;;;15.70;69.30;;;;;;5070916;28;20471;-52
2021/05/16 02:25:07;;;;;;;0.73;0.60;;;15.70;69.30;;;;;;5052779;28;20028;-49
2021/05/16 02:27:36;;;;;;;4.13;0.70;;;15.50;69.70;;;;;;5052197;28;20055;-51
2021/05/16 02:30:03;;;;;;;1.70;0.80;;;15.30;70.50;;;;;;5070875;28;20052;-46
2021/05/16 02:32:29;;;;;;;0.95;0.70;;;15.20;71.40;;;;;;5070478;28;20041;-46
2021/05/16 02:34:55;;;;;;;1.83;0.60;;;15.30;71.90;;;;;;5052558;28;20024;-47
2021/05/16 02:37:20;;;;;;;0.93;0.50;;;15.30;71.60;;;;;;5070368;28;20059;-48
2021/05/16 02:39:46;;;;;;;2.70;0.80;;;15.40;71.10;;;;;;5070123;28;20213;-48
2021/05/16 02:42:12;;;;;;;1.38;0.55;;;15.40;71.30;;;;;;5052698;28;20435;-46
2021/05/16 02:44:37;;;;;;;2.72;0.60;;;15.50;71.30;;;;;;5070124;28;20295;-48
2021/05/16 02:47:03;;;;;;;3.17;0.60;;;15.40;71.00;;;;;;5070433;28;20150;-46
2021/05/16 02:49:30;;;;;;;2.63;0.60;;;15.30;71.10;;;;;;5072119;28;20424;-48
2021/05/16 02:51:56;;;;;;;1.88;0.60;;;15.30;71.30;;;;;;5070785;28;20029;-49
2021/05/16 02:54:22;;;;;;;2.13;0.50;;;15.30;71.50;;;;;;5069966;28;20032;-48
2021/05/16 02:56:48;;;;;;;2.25;0.50;;;15.30;71.50;;;;;;5070178;28;20033;-48
2021/05/16 02:59:14;;;;;;;0.98;0.50;;;15.30;70.80;;;;;;5070645;28;20032;-46
2021/05/16 03:01:39;;;;;;;0.55;0.50;;;15.10;71.80;;;;;;5069738;28;20099;-47
2021/05/16 03:04:05;;;;;;;1.73;0.47;;;15.00;72.10;;;;;;5070614;28;20492;-49
2021/05/16 03:06:31;;;;;;;2.70;0.60;;;14.90;72.40;;;;;;5069787;28;20027;-49
2021/05/16 03:08:57;;;;;;;1.17;0.52;;;14.90;72.70;;;;;;5070521;28;20452;-45
2021/05/16 03:11:23;;;;;;;2.35;0.50;;;14.80;73.20;;;;;;5073814;28;20115;-46
2021/05/16 03:13:49;;;;;;;1.05;0.63;;;14.50;74.40;;;;;;5073705;28;20032;-47
2021/05/16 03:16:14;;;;;;;0.57;0.50;;;14.50;75.20;;;;;;5056626;28;20021;-48
2021/05/16 03:18:40;;;;;;;1.15;0.60;;;14.50;76.00;;;;;;5073885;28;20086;-46
2021/05/16 03:21:06;;;;;;;1.10;0.60;;;14.60;76.50;;;;;;5074279;28;20397;-46
2021/05/16 03:23:31;;;;;;;1.02;0.80;;;14.60;76.60;;;;;;5073559;28;20086;-49
2021/05/16 03:26:00;;;;;;;1.42;0.80;;;14.60;77.40;;;;;;5073933;28;20112;-47
2021/05/16 03:28:27;;;;;;;3.15;0.80;;;14.60;77.40;;;;;;5073741;28;20115;-45
2021/05/16 03:30:53;;;;;;;2.88;0.90;;;14.60;77.50;;;;;;5074252;28;20061;-47
2021/05/16 03:33:19;;;;;;;2.50;0.90;;;14.50;77.90;;;;;;5074055;28;20048;-49
2021/05/16 03:35:45;;;;;;;3.63;0.70;;;14.50;77.70;;;;;;5073247;28;20021;-47
2021/05/16 03:38:10;;;;;;;1.85;0.88;;;14.40;77.70;;;;;;5073604;28;20115;-46
2021/05/16 03:40:55;;;;;;;1.55;0.77;;;14.40;77.90;;;;;;5073849;28;20024;-46
2021/05/16 03:43:22;;;;;;;1.75;0.90;;;14.40;77.50;;;;;;5073736;28;20150;-46
2021/05/16 03:45:48;;;;;;;2.00;0.82;;;14.40;77.30;;;;;;5073155;28;20029;-48
2021/05/16 03:48:14;;;;;;;1.92;0.80;;;14.40;77.50;;;;;;5073480;28;20032;-48
2021/05/16 03:50:39;;;;;;;2.85;0.90;;;14.40;77.40;;;;;;5073072;28;20025;-49
2021/05/16 03:53:06;;;;;;;1.23;0.90;;;14.40;77.50;;;;;;5073714;28;20020;-47
2021/05/16 03:55:32;;;;;;;2.35;0.90;;;14.40;77.60;;;;;;5054972;28;20421;-46
2021/05/16 03:57:57;;;;;;;0.95;0.80;;;14.30;77.70;;;;;;5073489;28;20111;-48
2021/05/16 04:00:42;;;;;;;1.50;0.90;;;14.30;77.80;;;;;;5073556;28;20028;-46
2021/05/16 04:03:08;;;;;;;2.55;1.00;;;14.30;77.60;;;;;;5073525;28;20127;-45
2021/05/16 04:05:52;;;;;;;2.15;0.88;;;14.40;76.80;;;;;;5073064;28;20028;-46
2021/05/16 04:08:18;;;;;;;1.17;0.70;;;14.40;76.10;;;;;;5055008;28;20380;-45
2021/05/16 04:10:44;;;;;;;3.40;0.90;;;14.50;75.70;;;;;;5072783;28;20045;-46
2021/05/16 04:13:09;;;;;;;1.60;0.88;;;14.50;74.80;;;;;;5055285;28;20047;-45
2021/05/16 04:15:35;;;;;;;1.83;0.93;;;14.50;74.50;;;;;;5072616;28;20081;-45
2021/05/16 04:18:01;;;;;;;2.70;0.88;;;14.50;74.70;;;;;;5072948;28;20448;-46
2021/05/16 04:20:26;;;;;;;2.58;0.75;;;14.50;74.30;;;;;;5072776;28;20037;-46
2021/05/16 04:22:52;;;;;;;1.85;0.88;;;14.50;73.90;;;;;;5072806;28;20079;-46
2021/05/16 04:25:18;;;;;;;1.40;0.90;;;14.50;73.70;;;;;;5072885;28;20028;-46
2021/05/16 04:27:44;;;;;;;2.20;0.90;;;14.50;73.70;;;;;;5072352;28;20032;-48
2021/05/16 04:30:10;;;;;;;1.85;0.70;;;14.60;73.40;;;;;;5072596;28;20461;-46
2021/05/16 04:32:36;;;;;;;1.02;0.73;;;14.60;72.70;;;;;;5072402;28;20037;-49
2021/05/16 04:35:02;;;;;;;1.42;0.90;;;14.60;72.40;;;;;;5072801;28;20032;-48
2021/05/16 04:37:29;;;;;;;0.77;0.70;;;14.70;72.20;;;;;;5072826;28;20033;-45
2021/05/16 04:39:54;;;;;;;2.35;0.80;;;14.60;72.30;;;;;;5055124;28;20107;-47
2021/05/16 04:42:20;;;;;;;1.30;0.90;;;14.70;72.30;;;;;;5072473;28;20521;-51
2021/05/16 04:44:45;;;;;;;3.42;0.80;;;14.80;71.50;;;;;;5071987;28;20469;-51
2021/05/16 04:47:11;;;;;;;2.60;0.70;;;14.70;71.50;;;;;;5072852;28;20021;-46
2021/05/16 04:49:37;;;;;;;3.65;1.10;;;14.90;71.70;;;;;;5071301;28;20412;-46
2021/05/16 04:52:04;;;;;;;2.20;0.70;;;15.00;70.60;;;;;;5072622;28;20428;-47
2021/05/16 04:54:30;;;;;;;1.52;0.95;;;14.90;70.50;;;;;;5072077;28;20048;-49
2021/05/16 04:56:55;;;;;;;1.85;1.10;;;15.00;70.40;;;;;;5072441;28;20280;-47
2021/05/16 04:59:21;;;;;;;1.20;1.00;;;15.10;70.20;;;;;;5072569;28;20029;-50
2021/05/16 05:01:48;;;;;;;1.65;1.00;;;15.20;69.50;;;;;;5054250;28;20020;-46
2021/05/16 05:04:14;;;;;;;1.95;1.00;;;15.20;69.00;;;;;;5072373;28;20153;-48
2021/05/16 05:06:40;;;;;;;2.20;0.90;;;15.40;68.80;;;;;;5053345;28;20036;-46
2021/05/16 05:09:06;;;;;;;4.60;1.20;;;15.50;68.20;;;;;;5072261;28;20024;-46
2021/05/16 05:11:33;;;;;;;2.72;0.90;;;15.70;67.50;;;;;;5053516;28;20047;-49
2021/05/16 05:13:59;;;;;;;1.17;0.88;;;15.80;67.30;;;;;;5054213;28;20024;-46
2021/05/16 05:16:25;;;;;;;1.33;0.80;;;15.80;67.00;;;;;;5071447;28;20022;-47
2021/05/16 05:18:51;;;;;;;1.80;1.00;;;15.70;66.60;;;;;;5070724;28;20503;-48
2021/05/16 05:21:16;;;;;;;3.65;1.08;;;15.50;67.20;;;;;;5053633;28;20035;-46
2021/05/16 05:23:42;;;;;;;1.00;0.80;;;15.40;67.80;;;;;;5071243;28;20032;-49
2021/05/16 05:26:08;;;;;;;1.95;0.88;;;15.50;67.20;;;;;;5071681;28;20043;-46
2021/05/16 05:28:34;;;;;;;1.02;0.80;;;15.50;67.30;;;;;;5071235;28;20405;-49
2021/05/16 05:31:00;;;;;;;2.38;0.88;;;15.60;67.10;;;;;;5070848;28;20075;-50
2021/05/16 05:33:25;;;;;;;1.35;0.88;;;15.60;66.60;;;;;;5069606;28;20441;-48
2021/05/16 05:35:52;;;;;;;1.48;0.90;;;15.70;66.30;;;;;;5070299;28;20081;-49
2021/05/16 05:38:19;;;;;;;1.73;1.08;;;15.70;66.00;;;;;;5071314;28;20032;-47
2021/05/16 05:40:45;;;;;;;4.68;1.20;;;15.80;65.30;;;;;;5053338;28;20024;-50
2021/05/16 05:43:10;;;;;;;2.33;0.95;;;15.80;65.70;;;;;;5071094;28;20033;-50
2021/05/16 05:45:37;;;;;;;1.02;0.80;;;15.90;64.80;;;;;;5070703;28;20028;-48
2021/05/16 05:48:03;;;;;;;2.17;0.88;;;15.90;64.70;;;;;;5070879;28;20037;-46
2021/05/16 05:50:29;;;;;;;1.10;0.80;;;15.70;64.90;;;;;;5053280;28;20054;-45
2021/05/16 05:52:55;;;;;;;1.27;0.90;;;15.80;64.70;;;;;;5070753;28;20504;-45
2021/05/16 05:55:22;;;;;;;1.67;0.90;;;15.90;64.70;;;;;;5071080;28;20021;-45
2021/05/16 05:57:47;;;;;;;1.25;0.80;;;15.90;64.30;;;;;;5070549;28;20099;-46
2021/05/16 06:00:14;;;;;;;1.30;0.90;;;15.90;64.30;;;;;;5071278;28;20151;-46
2021/05/16 06:02:40;;;;;;;1.17;0.80;;;16.10;63.70;;;;;;5070454;28;20028;-50
2021/05/16 06:05:06;;;;;;;1.67;0.70;;;16.20;63.20;;;;;;5071261;28;20032;-45
2021/05/16 06:07:32;;;;;;;1.77;0.80;;;16.10;63.10;;;;;;5070439;28;20033;-46
2021/05/16 06:09:58;;;;;;;2.28;0.93;;;15.80;64.70;;;;;;5070805;28;20041;-48
2021/05/16 06:12:25;;;;;;;1.48;0.80;;;16.00;63.80;;;;;;5070582;28;20063;-45
2021/05/16 06:14:53;;;;;;;1.23;0.80;;;16.00;63.70;;;;;;5070589;28;20322;-45
2021/05/16 06:17:19;;;;;;;1.70;0.85;;;15.80;64.10;;;;;;5053047;28;20465;-45
2021/05/16 06:19:44;;;;;;;2.03;0.70;;;16.00;64.10;;;;;;5070528;28;20074;-46
2021/05/16 06:22:13;;;;;;;1.23;0.80;;;16.00;63.50;;;;;;5071199;28;20483;-46
2021/05/16 06:24:40;;;;;;;0.95;0.70;;;16.10;63.30;;;;;;5052113;28;20032;-46
2021/05/16 06:27:06;;;;;;;2.45;0.80;;;16.30;62.70;;;;;;5070726;28;20082;-47
2021/05/16 06:29:31;;;;;;;1.08;0.70;;;16.30;62.00;;;;;;5070546;28;20381;-45
2021/05/16 06:31:57;;;;;;;2.05;1.00;;;16.50;61.50;;;;;;5070597;28;20060;-45
2021/05/16 06:34:23;;;;;;;1.73;0.90;;;16.70;60.90;;;;;;5052854;28;20429;-45
2021/05/16 06:36:48;;;;;;;1.15;0.77;;;16.90;60.20;;;;;;5069910;28;20028;-46
2021/05/16 06:39:14;;;;;;;1.38;0.65;;;17.10;59.60;;;;;;5070679;28;20036;-47
2021/05/16 06:41:40;;;;;;;1.95;0.90;;;16.80;60.10;;;;;;5052105;28;20476;-48
2021/05/16 06:44:06;;;;;;;1.17;0.80;;;16.50;60.40;;;;;;5052255;28;20029;-47
2021/05/16 06:46:32;;;;;;;1.92;0.80;;;16.60;60.50;;;;;;5070247;28;20024;-48
2021/05/16 06:48:58;;;;;;;2.00;0.90;;;16.80;59.60;;;;;;5070185;28;20061;-48
2021/05/16 06:51:24;;;;;;;1.38;1.10;;;16.80;58.80;;;;;;5070262;28;20062;-48
2021/05/16 06:53:50;;;;;;;1.98;1.38;;;17.60;57.40;;;;;;5069891;28;20098;-49
2021/05/16 06:56:16;;;;;;;2.25;1.58;;;19.90;52.90;;;;;;5070544;28;20029;-46
2021/05/16 06:58:42;;;;;;;1.65;1.20;;;22.80;45.80;;;;;;5051873;28;20353;-47
2021/05/16 07:01:08;;;;;;;2.38;1.02;;;24.80;40.30;;;;;;5070415;28;20031;-51
2021/05/16 07:03:35;;;;;;;1.48;1.38;;;25.00;39.10;;;;;;5051583;28;20021;-52
2021/05/16 07:06:01;;;;;;;1.77;1.40;;;25.90;38.20;;;;;;5070367;28;20021;-49
2021/05/16 07:08:27;;;;;;;1.50;1.17;;;27.30;35.50;;;;;;5070217;28;20025;-49
2021/05/16 07:10:54;;;;;;;1.38;1.23;;;27.50;34.20;;;;;;5052013;28;20037;-46
2021/05/16 07:13:20;;;;;;;2.65;1.40;;;28.20;33.10;;;;;;5069530;28;20449;-49
2021/05/16 07:15:46;;;;;;;3.00;1.30;;;28.20;32.60;;;;;;5069719;28;20028;-47
2021/05/16 07:18:11;;;;;;;1.73;1.20;;;28.10;33.10;;;;;;5052367;28;20036;-51
2021/05/16 07:20:38;;;;;;;4.40;1.55;;;29.20;31.40;;;;;;5069901;28;20100;-45
2021/05/16 07:23:04;;;;;;;3.10;1.80;;;30.10;31.30;;;;;;5070363;28;20390;-49
2021/05/16 07:25:29;;;;;;;1.40;1.20;;;32.10;28.90;;;;;;5070186;28;20020;-52
2021/05/16 07:27:55;;;;;;;4.65;1.52;;;33.40;27.70;;;;;;5051608;28;20111;-51
2021/05/16 07:30:22;;;;;;;1.50;1.20;;;33.40;27.30;;;;;;5070265;28;20029;-48
2021/05/16 07:32:47;;;;;;;1.95;1.50;;;33.20;27.20;;;;;;5069695;28;20021;-48
2021/05/16 07:35:13;;;;;;;2.10;1.73;;;33.50;27.60;;;;;;5070225;28;20036;-48
2021/05/16 07:37:39;;;;;;;3.78;1.48;;;34.50;26.70;;;;;;5051478;28;20397;-47
2021/05/16 07:40:06;;;;;;;3.72;2.00;;;35.20;25.60;;;;;;5070199;28;20024;-50
2021/05/16 07:42:32;;;;;;;2.95;2.10;;;35.80;25.10;;;;;;5070414;28;20024;-53
2021/05/16 07:44:58;;;;;;;3.90;1.90;;;36.10;23.80;;;;;;5070312;28;20060;-50
2021/05/16 07:47:24;;;;;;;2.10;1.63;;;35.50;24.00;;;;;;5051687;28;20060;-47
2021/05/16 07:49:49;;;;;;;2.47;1.50;;;34.20;24.50;;;;;;5078585;28;20494;-51
2021/05/16 07:52:15;;;;;;;2.30;1.48;;;34.00;24.50;;;;;;5089897;28;20537;-50
2021/05/16 07:54:41;;;;;;;4.57;1.70;;;33.30;24.70;;;;;;5088989;28;20028;-50
2021/05/16 07:57:08;;;;;;;2.90;1.30;;;32.80;25.20;;;;;;5092070;28;20031;-50
2021/05/16 07:59:35;;;;;;;3.95;1.85;;;32.40;25.60;;;;;;5093452;28;20036;-49
2021/05/16 08:02:01;;;;;;;4.38;1.90;;;30.90;26.30;;;;;;5093572;28;20028;-49
2021/05/16 08:04:27;;;;;;;4.03;1.70;;;30.70;26.70;;;;;;5091890;28;20070;-47
2021/05/16 08:06:55;;;;;;;7.40;1.70;;;31.10;26.30;;;;;;5093608;28;20115;-50
2021/05/16 08:09:22;;;;;;;5.30;2.20;;;31.10;26.30;;;;;;5091898;28;20073;-46
2021/05/16 08:11:48;;;;;;;6.72;2.92;;;30.50;26.60;;;;;;5093660;28;20032;-47
2021/05/16 08:14:13;;;;;;;6.57;2.35;;;30.40;27.30;;;;;;5093027;28;20028;-47
2021/05/16 08:16:40;;;;;;;3.55;1.80;;;32.10;26.10;;;;;;5093703;28;20028;-50
2021/05/16 08:19:06;;;;;;;2.85;1.92;;;31.80;26.10;;;;;;5093783;28;20061;-51
2021/05/16 08:21:34;;;;;;;5.90;2.15;;;32.00;26.20;;;;;;5093102;28;20032;-51
2021/05/16 08:26:44;;;;;;;2.80;1.40;;;33.50;25.20;;;;;;5094107;28;20093;-47
2021/05/16 08:29:09;;;;;;;5.15;2.13;;;33.60;25.10;;;;;;5093058;28;20468;-52
2021/05/16 08:31:35;;;;;;;5.57;2.50;;;34.10;25.10;;;;;;5091052;28;20028;-51
2021/05/16 08:34:07;;;;;;;3.85;2.13;;;35.30;24.50;;;;;;5088890;28;20031;-52
2021/05/16 08:36:35;;;;;;;4.68;3.15;;;36.60;23.90;;;;;;5092429;28;20024;-52
2021/05/16 08:39:02;;;;;;;4.80;2.35;;;38.00;22.80;;;;;;5093541;28;20101;-49
2021/05/16 08:41:27;;;;;;;3.58;2.50;;;38.10;22.70;;;;;;5093154;28;20024;-48
2021/05/16 08:43:54;;;;;;;3.65;2.55;;;36.70;23.00;;;;;;5091900;28;20024;-47
2021/05/16 08:46:21;;;;;;;4.68;2.33;;;36.60;23.00;;;;;;5092499;28;20024;-47
2021/05/16 08:48:46;;;;;;;5.03;2.67;;;35.80;23.50;;;;;;5087790;28;20080;-48
2021/05/16 08:51:15;;;;;;;3.75;2.90;;;35.30;23.50;;;;;;5054045;28;20102;-48
2021/05/16 08:53:41;;;;;;;3.30;2.33;;;35.60;23.40;;;;;;5072362;28;20431;-49
2021/05/16 08:56:07;;;;;;;4.70;1.88;;;36.90;23.30;;;;;;5072872;28;20370;-50
2021/05/16 08:58:34;;;;;;;5.45;2.03;;;38.70;22.40;;;;;;5072543;28;20032;-49
2021/05/16 09:00:59;;;;;;;3.72;1.80;;;37.20;22.60;;;;;;5072540;28;20055;-51
2021/05/16 09:03:26;;;;;;;6.50;2.75;;;35.40;23.10;;;;;;5072179;28;20032;-45
2021/05/16 09:05:53;;;;;;;4.30;1.92;;;33.60;24.30;;;;;;5072836;28;20131;-45
2021/05/16 09:08:22;;;;;;;3.65;1.42;;;33.30;24.70;;;;;;5072216;28;20032;-47
2021/05/16 09:10:55;;;;;;;3.80;1.67;;;31.40;25.50;;;;;;5073199;28;20036;-47
2021/05/16 09:13:23;;;;;;;4.18;1.30;;;29.60;26.90;;;;;;5072129;28;20063;-50
2021/05/16 09:15:59;;;;;;;4.40;1.38;;;27.90;28.40;;;;;;5072817;28;20111;-48
2021/05/16 09:18:45;;;;;;;6.00;2.00;;;26.60;29.50;;;;;;5071807;28;20038;-53
2021/05/16 09:21:35;;;;;;;5.00;1.50;;;25.70;30.70;;;;;;5072526;28;20024;-47
2021/05/16 09:24:05;;;;;;;7.32;1.83;;;24.60;32.50;;;;;;5062503;28;20036;-50
2021/05/16 09:26:49;;;;;;;5.05;1.50;;;24.10;33.00;;;;;;5071083;28;20379;-50
2021/05/16 09:29:24;;;;;;;5.85;1.63;;;23.80;34.10;;;;;;5053814;28;20082;-49
2021/05/16 09:31:51;;;;;;;7.60;2.08;;;23.70;34.30;;;;;;5053020;28;20367;-50
2021/05/16 09:34:17;;;;;;;6.50;1.50;;;23.60;34.50;;;;;;5071097;28;20107;-47
2021/05/16 09:36:47;;;;;;;5.93;1.63;;;23.50;34.70;;;;;;5070749;28;20033;-49
2021/05/16 09:39:27;;;;;;;5.15;1.60;;;23.40;35.10;;;;;;5053106;28;20042;-52
2021/05/16 09:42:06;;;;;;;5.40;1.40;;;23.40;34.80;;;;;;5053422;28;20021;-47
2021/05/16 09:44:34;;;;;;;4.00;1.67;;;23.30;35.10;;;;;;5053344;28;20398;-52
2021/05/16 09:47:21;;;;;;;4.65;1.70;;;23.10;35.60;;;;;;5071575;28;20020;-51
2021/05/16 09:49:58;;;;;;;6.97;2.05;;;23.00;35.80;;;;;;5074924;28;20468;-46
2021/05/16 09:52:30;;;;;;;6.15;1.48;;;23.30;35.70;;;;;;5090206;28;20085;-48
2021/05/16 09:55:13;;;;;;;5.13;1.52;;;23.40;35.00;;;;;;5091877;28;20067;-48
2021/05/16 09:57:47;;;;;;;4.88;1.60;;;22.90;35.80;;;;;;5089910;28;20020;-51
2021/05/16 10:00:15;;;;;;;3.33;1.60;;;22.40;36.40;;;;;;5091565;28;20384;-48
2021/05/16 10:02:42;;;;;;;6.93;1.70;;;22.10;37.40;;;;;;5091631;28;20475;-49
2021/05/16 10:05:10;;;;;;;3.42;1.40;;;21.90;38.00;;;;;;5091821;28;20028;-47
2021/05/16 10:07:40;;;;;;;5.07;1.48;;;21.80;38.50;;;;;;5091195;28;20061;-48
2021/05/16 10:10:08;;;;;;;7.13;1.50;;;21.80;38.40;;;;;;5091930;28;20027;-47
2021/05/16 10:12:36;;;;;;;6.90;1.63;;;21.70;38.80;;;;;;5091520;28;20035;-47
2021/05/16 10:15:11;;;;;;;5.55;1.33;;;21.70;38.00;;;;;;5091706;28;20027;-46
2021/05/16 10:17:39;;;;;;;3.63;1.60;;;21.60;38.40;;;;;;5089795;28;20024;-46
2021/05/16 10:20:13;;;;;;;4.90;1.50;;;22.00;38.20;;;;;;5091565;28;20028;-49
2021/05/16 10:25:42;;;;;;;5.50;1.60;;;22.50;36.80;;;;;;5091019;28;20560;-48
2021/05/16 10:28:11;;;;;;;5.65;1.50;;;22.50;37.20;;;;;;5091375;28;20039;-46
2021/05/16 10:30:37;;;;;;;6.72;1.50;;;22.10;37.60;;;;;;5090883;28;20228;-49
2021/05/16 10:33:03;;;;;;;4.72;1.60;;;21.90;38.00;;;;;;5090929;28;20182;-49
2021/05/16 10:35:50;;;;;;;6.03;1.88;;;22.20;37.70;;;;;;5091083;28;20130;-47
2021/05/16 10:38:38;;;;;;;5.03;1.42;;;22.40;37.50;;;;;;5091053;28;20460;-48
2021/05/16 10:41:21;;;;;;;7.32;1.83;;;22.40;37.40;;;;;;5091568;28;20016;-47
2021/05/16 10:43:47;;;;;;;6.70;1.67;;;22.60;37.10;;;;;;5091281;28;20047;-52
2021/05/16 10:46:37;;;;;;;5.22;1.85;;;22.50;36.50;;;;;;5091541;28;20413;-47
2021/05/16 10:49:23;;;;;;;3.78;1.27;;;22.40;36.80;;;;;;5084236;28;20190;-58
2021/05/16 10:51:49;;;;;;;7.35;1.88;;;22.40;36.60;;;;;;5071022;28;20073;-47
2021/05/16 10:54:33;;;;;;;7.78;1.58;;;22.40;36.60;;;;;;5053325;28;20044;-48
2021/05/16 10:57:14;;;;;;;5.68;1.40;;;22.50;36.50;;;;;;5053306;28;20465;-48
2021/05/16 10:59:41;;;;;;;5.22;1.60;;;22.30;37.00;;;;;;5070787;28;20100;-46
2021/05/16 11:02:07;;;;;;;4.75;1.73;;;22.20;37.10;;;;;;5071426;28;20024;-46
2021/05/16 11:04:52;;;;;;;4.13;1.50;;;22.30;37.30;;;;;;5070122;28;20147;-46
2021/05/16 11:07:31;;;;;;;4.40;1.52;;;22.20;36.80;;;;;;5053092;28;20020;-47
2021/05/16 11:10:22;;;;;;;3.70;1.17;;;22.00;36.80;;;;;;5070829;28;20063;-47
2021/05/16 11:12:48;;;;;;;3.97;1.35;;;22.00;37.10;;;;;;5070719;28;20091;-46
2021/05/16 11:15:24;;;;;;;5.55;1.35;;;21.90;37.00;;;;;;5070067;28;20035;-46
2021/05/16 11:17:51;;;;;;;3.58;1.30;;;22.00;36.60;;;;;;5069542;28;20040;-46
2021/05/16 11:20:20;;;;;;;4.28;1.50;;;22.10;36.90;;;;;;5052705;28;20031;-45
2021/05/16 11:22:46;;;;;;;7.22;1.90;;;22.60;35.70;;;;;;5070986;28;20063;-46
2021/05/16 11:25:23;;;;;;;5.22;1.67;;;22.60;35.60;;;;;;5052754;28;20082;-46
2021/05/16 11:27:49;;;;;;;3.08;1.40;;;22.50;36.10;;;;;;5071144;28;20020;-47
2021/05/16 11:30:15;;;;;;;3.65;1.20;;;22.50;35.30;;;;;;5052748;28;20025;-46
2021/05/16 11:32:42;;;;;;;3.40;1.42;;;22.60;35.00;;;;;;5074006;28;20382;-47
2021/05/16 11:35:16;;;;;;;5.25;1.50;;;22.40;34.20;;;;;;5074375;28;20437;-49
2021/05/16 11:37:45;;;;;;;3.95;1.58;;;22.40;34.50;;;;;;5055808;28;20685;-49
2021/05/16 11:40:32;;;;;;;4.43;1.35;;;22.20;34.10;;;;;;5074690;28;20442;-45
2021/05/16 11:43:04;;;;;;;3.15;1.40;;;22.20;33.60;;;;;;5074600;28;20067;-45
2021/05/16 11:45:33;;;;;;;4.95;1.40;;;22.20;33.90;;;;;;5073754;28;20342;-46
2021/05/16 11:47:59;;;;;;;3.30;1.33;;;22.20;34.70;;;;;;5056465;28;20027;-50
2021/05/16 11:50:43;;;;;;;3.72;1.25;;;22.20;34.20;;;;;;5073792;28;20045;-47
2021/05/16 11:53:09;;;;;;;2.60;1.00;;;22.30;34.10;;;;;;5073893;28;20512;-47
2021/05/16 11:55:35;;;;;;;4.38;1.35;;;22.30;33.80;;;;;;5055961;28;20060;-46
2021/05/16 11:58:01;;;;;;;4.03;1.00;;;22.20;34.50;;;;;;5073987;28;20021;-51
2021/05/16 12:00:31;;;;;;;3.13;1.30;;;22.20;34.70;;;;;;5055816;28;20024;-47
2021/05/16 12:03:08;;;;;;;7.45;1.80;;;22.30;33.90;;;;;;5056418;28;20016;-51
2021/05/16 12:05:34;;;;;;;4.60;1.50;;;22.60;34.10;;;;;;5072333;28;20028;-52
2021/05/16 12:08:16;;;;;;;4.70;1.13;;;22.90;34.00;;;;;;5054104;28;20040;-47
2021/05/16 12:10:42;;;;;;;5.25;1.40;;;22.90;33.50;;;;;;5072388;28;20081;-50
2021/05/16 12:13:24;;;;;;;8.52;1.40;;;22.90;33.70;;;;;;5054729;28;20062;-51
2021/05/16 12:15:50;;;;;;;4.57;1.35;;;22.90;34.00;;;;;;5072938;28;20024;-49
2021/05/16 12:18:25;;;;;;;4.93;1.75;;;23.00;34.20;;;;;;5073704;28;20044;-46
2021/05/16 12:20:58;;;;;;;5.50;1.30;;;23.20;33.30;;;;;;5073789;28;20028;-48
2021/05/16 12:23:24;;;;;;;5.28;1.42;;;23.50;32.10;;;;;;5073606;28;20081;-51
2021/05/16 12:25:50;;;;;;;3.83;1.20;;;23.60;31.10;;;;;;5055051;28;20222;-47
2021/05/16 12:28:16;;;;;;;3.10;1.15;;;23.50;31.10;;;;;;5055485;28;20048;-46
2021/05/16 12:30:44;;;;;;;5.57;1.20;;;23.50;30.60;;;;;;5071655;28;20071;-51
2021/05/16 12:33:10;;;;;;;5.22;1.35;;;23.20;30.90;;;;;;5072218;28;20063;-48
2021/05/16 12:35:37;;;;;;;3.42;1.25;;;23.20;31.00;;;;;;5070961;28;20115;-49
2021/05/16 12:38:10;;;;;;;2.22;1.10;;;23.40;30.90;;;;;;5072552;28;20037;-45
2021/05/16 12:40:36;;;;;;;2.92;1.10;;;23.50;30.70;;;;;;5054505;28;20032;-47
2021/05/16 12:43:04;;;;;;;4.25;1.73;;;23.40;30.70;;;;;;5054213;28;20362;-47
2021/05/16 12:45:30;;;;;;;3.67;1.25;;;23.60;30.70;;;;;;5072529;28;20025;-48
2021/05/16 12:47:57;;;;;;;3.95;1.30;;;23.60;30.60;;;;;;5072457;28;20032;-49
2021/05/16 12:50:40;;;;;;;2.85;1.10;;;23.50;31.00;;;;;;5074149;28;20112;-52
2021/05/16 12:53:28;;;;;;;4.55;1.10;;;23.70;30.30;;;;;;5072270;28;20025;-50
2021/05/16 12:56:22;;;;;;;1.77;0.80;;;23.50;30.20;;;;;;5053742;28;20032;-50
2021/05/16 12:59:03;;;;;;;4.78;1.60;;;23.50;30.60;;;;;;5072062;28;20040;-48
2021/05/16 13:01:39;;;;;;;3.53;1.40;;;23.70;30.00;;;;;;5072105;28;20048;-49